createdAt,value
2023-03-27T00:01:38.977Z,95176.27
2023-03-27T00:04:09.760Z,95166.91
2023-03-27T00:06:39.756Z,95154.65
2023-03-27T00:09:09.633Z,95150.64
2023-03-27T00:11:38.881Z,95140.31
2023-03-27T00:14:07.564Z,95123.71
2023-03-27T00:16:38.058Z,95113.42
2023-03-27T00:19:07.913Z,95094.93
2023-03-27T00:21:37.621Z,95088.86
2023-03-27T00:24:09.099Z,95092.67
2023-03-27T00:26:40.999Z,95096.64
2023-03-27T00:29:13.650Z,95100.16
2023-03-27T00:31:43.859Z,95089.27
2023-03-27T00:34:13.969Z,95080.44
2023-03-27T00:36:45.479Z,95083.23
2023-03-27T00:39:16.733Z,95083.98
2023-03-27T00:41:49.469Z,95087.29
2023-03-27T00:44:28.524Z,95085.48
2023-03-27T00:46:59.016Z,95077.54
2023-03-27T00:49:32.476Z,95072.50
2023-03-27T00:52:05.277Z,95066.18
2023-03-27T00:54:40.608Z,95065.21
2023-03-27T00:57:17.466Z,95058.18
2023-03-27T00:59:49.974Z,95051.38
2023-03-27T01:02:20.107Z,95048.54
2023-03-27T01:04:50.671Z,95040.65
2023-03-27T01:07:20.716Z,95038.28
2023-03-27T01:09:51.015Z,95040.26
2023-03-27T01:12:48.953Z,95031.06
2023-03-27T01:15:32.593Z,95034.23
2023-03-27T01:18:26.905Z,95040.64
2023-03-27T01:21:32.539Z,95033.80
2023-03-27T01:24:05.849Z,95032.84
2023-03-27T01:27:05.032Z,95038.89
2023-03-27T01:29:58.954Z,95039.20
2023-03-27T01:33:07.005Z,95039.57
2023-03-27T01:35:44.647Z,95027.88
2023-03-27T01:38:33.651Z,95017.45
2023-03-27T01:41:08.489Z,95023.49
2023-03-27T01:43:39.638Z,95022.59
2023-03-27T01:46:36.111Z,95017.67
2023-03-27T01:49:14.648Z,95010.02
2023-03-27T01:51:58.754Z,95003.75
2023-03-27T01:54:32.069Z,94996.24
2023-03-27T01:57:18.075Z,94993.16
2023-03-27T01:59:57.436Z,94989.21
2023-03-27T02:03:00.536Z,94985.88
2023-03-27T02:05:58.753Z,94980.28
2023-03-27T02:08:46.921Z,94975.17
2023-03-27T02:11:19.941Z,94972.29
2023-03-27T02:14:14.415Z,94969.08
2023-03-27T02:16:52.226Z,94965.79
2023-03-27T02:19:35.129Z,94968.39
2023-03-27T02:22:04.981Z,94964.12
2023-03-27T02:24:46.626Z,94950.42
2023-03-27T02:27:35.745Z,94948.23
2023-03-27T02:30:14.884Z,94938.59
2023-03-27T02:33:25.454Z,94928.52
2023-03-27T02:36:21.654Z,94932.64
2023-03-27T02:39:09.271Z,94933.67
2023-03-27T02:41:52.868Z,94932.20
2023-03-27T02:44:52.439Z,94925.33
2023-03-27T02:47:29.212Z,94924.12
2023-03-27T02:50:11.599Z,94922.89
2023-03-27T02:52:53.431Z,94915.19
2023-03-27T02:55:29.462Z,94915.98
2023-03-27T02:58:05.886Z,94922.98
2023-03-27T03:00:49.088Z,94917.77
2023-03-27T03:04:00.554Z,94912.84
2023-03-27T03:06:43.939Z,94909.00
2023-03-27T03:09:15.405Z,94908.30
2023-03-27T03:11:53.682Z,94902.31
2023-03-27T03:14:29.607Z,94893.01
2023-03-27T03:16:59.724Z,94887.14
2023-03-27T03:19:30.047Z,94879.49
2023-03-27T03:21:58.967Z,94879.65
2023-03-27T03:24:30.049Z,94875.41
2023-03-27T03:27:03.011Z,94869.02
2023-03-27T03:29:38.180Z,94860.64
2023-03-27T03:32:19.825Z,94858.04
2023-03-27T03:34:52.361Z,94862.25
2023-03-27T03:37:22.079Z,94854.77
2023-03-27T03:39:52.600Z,94850.27
2023-03-27T03:42:22.866Z,94843.29
2023-03-27T03:44:56.213Z,94825.38
2023-03-27T03:47:26.123Z,94824.69
2023-03-27T03:49:58.371Z,94818.33
2023-03-27T03:52:29.038Z,94812.27
2023-03-27T03:54:59.371Z,94807.89
2023-03-27T03:57:28.861Z,94804.82
2023-03-27T04:00:13.706Z,94799.04
2023-03-27T04:02:54.842Z,94796.71
2023-03-27T04:05:25.008Z,94790.98
2023-03-27T04:07:56.003Z,94790.40
2023-03-27T04:10:45.325Z,94790.05
2023-03-27T04:13:31.134Z,94792.89
2023-03-27T04:16:08.398Z,94807.44
2023-03-27T04:18:41.854Z,94809.96
2023-03-27T04:21:18.215Z,94791.23
2023-03-27T04:23:51.751Z,94786.81
2023-03-27T04:26:30.143Z,94785.70
2023-03-27T04:29:44.455Z,94772.55
2023-03-27T04:32:33.525Z,94762.98
2023-03-27T04:35:23.814Z,94753.17
2023-03-27T04:38:03.086Z,94748.52
2023-03-27T04:40:53.423Z,94747.00
2023-03-27T04:43:26.443Z,94747.79
2023-03-27T04:45:55.264Z,94737.56
2023-03-27T04:48:25.261Z,94727.66
2023-03-27T04:50:55.460Z,94725.83
2023-03-27T04:53:38.189Z,94725.80
2023-03-27T04:56:10.041Z,94725.41
2023-03-27T04:58:47.514Z,94713.50
2023-03-27T05:01:19.641Z,94709.52
2023-03-27T05:04:16.103Z,94702.64
2023-03-27T05:07:05.186Z,94700.30
2023-03-27T05:09:35.101Z,94698.89
2023-03-27T05:12:05.028Z,94694.88
2023-03-27T05:14:39.851Z,94689.46
2023-03-27T05:17:16.826Z,94688.15
2023-03-27T05:19:47.530Z,94683.08
2023-03-27T05:22:17.281Z,94675.02
2023-03-27T05:24:53.677Z,94671.67
2023-03-27T05:27:24.479Z,94667.61
2023-03-27T05:29:56.160Z,94666.45
2023-03-27T05:32:27.515Z,94660.51
2023-03-27T05:35:18.503Z,94663.27
2023-03-27T05:37:50.813Z,94661.94
2023-03-27T05:40:28.686Z,94660.44
2023-03-27T05:42:58.133Z,94652.70
2023-03-27T05:45:31.458Z,94647.13
2023-03-27T05:48:03.119Z,94648.17
2023-03-27T05:50:36.353Z,94650.48
2023-03-27T05:53:11.491Z,94648.00
2023-03-27T05:55:48.954Z,94647.73
2023-03-27T05:58:39.820Z,94644.11
2023-03-27T06:01:11.653Z,94637.92
2023-03-27T06:03:41.654Z,94633.12
2023-03-27T06:06:20.088Z,94636.04
2023-03-27T06:08:51.160Z,94634.30
2023-03-27T06:11:21.054Z,94636.24
2023-03-27T06:13:52.003Z,94630.79
2023-03-27T06:16:27.016Z,94627.02
2023-03-27T06:18:57.064Z,94626.70
2023-03-27T06:21:29.422Z,94625.02
2023-03-27T06:24:01.892Z,94624.87
2023-03-27T06:26:32.116Z,94618.87
2023-03-27T06:29:08.129Z,94616.29
2023-03-27T06:31:41.215Z,94608.52
2023-03-27T06:34:16.374Z,94597.02
2023-03-27T06:36:51.577Z,94594.42
2023-03-27T06:39:22.058Z,94592.69
2023-03-27T06:41:53.766Z,94586.08
2023-03-27T06:44:54.453Z,94589.63
2023-03-27T06:47:57.454Z,94579.61
2023-03-27T06:50:47.014Z,94577.89
2023-03-27T06:55:52.095Z,94587.80
2023-03-27T06:58:22.217Z,94580.62
2023-03-27T07:00:52.641Z,94575.64
2023-03-27T07:03:23.398Z,94577.07
2023-03-27T07:06:12.902Z,94571.88
2023-03-27T07:08:55.829Z,94561.34
2023-03-27T07:11:25.883Z,94567.64
2023-03-27T07:13:58.613Z,94562.79
2023-03-27T07:16:30.488Z,94557.79
2023-03-27T07:19:02.224Z,94555.27
2023-03-27T07:21:32.489Z,94550.09
2023-03-27T07:24:04.422Z,94550.91
2023-03-27T07:26:35.815Z,94554.42
2023-03-27T07:29:12.425Z,94560.27
2023-03-27T07:31:55.396Z,94565.35
2023-03-27T07:34:52.476Z,94573.97
2023-03-27T07:37:25.097Z,94574.87
2023-03-27T07:40:13.819Z,94578.65
2023-03-27T07:42:45.992Z,94574.22
2023-03-27T07:45:24.416Z,94566.75
2023-03-27T07:48:06.383Z,94557.42
2023-03-27T07:50:37.987Z,94552.54
2023-03-27T07:53:07.911Z,94554.61
2023-03-27T07:55:38.220Z,94555.74
2023-03-27T07:58:09.587Z,94555.91
2023-03-27T08:00:43.231Z,94553.29
2023-03-27T08:03:17.947Z,94552.38
2023-03-27T08:05:59.400Z,94545.04
2023-03-27T08:08:29.066Z,94540.36
2023-03-27T08:11:03.204Z,94547.69
2023-03-27T08:13:37.488Z,94543.33
2023-03-27T08:16:10.985Z,94546.05
2023-03-27T08:18:41.623Z,94544.75
2023-03-27T08:21:12.192Z,94547.80
2023-03-27T08:23:43.126Z,94546.96
2023-03-27T08:26:32.637Z,94544.68
2023-03-27T08:29:05.237Z,94544.73
2023-03-27T08:31:35.492Z,94546.38
2023-03-27T08:34:07.226Z,94545.05
2023-03-27T08:36:44.717Z,94554.89
2023-03-27T08:39:14.795Z,94554.58
2023-03-27T08:42:14.531Z,94554.73
2023-03-27T08:44:55.349Z,94545.96
2023-03-27T08:47:45.346Z,94542.27
2023-03-27T08:50:44.778Z,94538.15
2023-03-27T08:53:45.264Z,94540.36
2023-03-27T08:56:18.996Z,94537.50
2023-03-27T08:58:53.077Z,94537.59
2023-03-27T09:01:48.880Z,94528.01
2023-03-27T09:05:05.426Z,94522.45
2023-03-27T09:08:15.430Z,94506.14
2023-03-27T09:10:52.184Z,94511.64
2023-03-27T09:13:44.368Z,94504.87
2023-03-27T09:16:19.959Z,94501.39
2023-03-27T09:19:16.073Z,94490.17
2023-03-27T09:22:03.281Z,94487.87
2023-03-27T09:24:56.833Z,94477.79
2023-03-27T09:27:36.246Z,94478.32
2023-03-27T09:30:34.149Z,94472.29
2023-03-27T09:33:15.316Z,94463.39
2023-03-27T09:35:47.587Z,94466.40
2023-03-27T09:38:33.011Z,94452.77
2023-03-27T09:41:12.658Z,94449.41
2023-03-27T09:43:47.081Z,94452.04
2023-03-27T09:46:21.927Z,94442.73
2023-03-27T09:49:22.106Z,94440.98
2023-03-27T09:51:57.153Z,94441.61
2023-03-27T09:54:56.480Z,94436.02
2023-03-27T09:57:37.735Z,94426.27
2023-03-27T10:00:28.127Z,94432.14
2023-03-27T10:03:04.336Z,94432.06
2023-03-27T10:05:35.227Z,94448.80
2023-03-27T10:08:43.621Z,94451.41
2023-03-27T10:11:24.514Z,94454.64
2023-03-27T10:14:02.163Z,94455.91
2023-03-27T10:16:42.877Z,94456.05
2023-03-27T10:19:37.515Z,94457.79
2023-03-27T10:22:30.066Z,94452.90
2023-03-27T10:25:03.879Z,94446.88
2023-03-27T10:28:39.483Z,94441.21
2023-03-27T10:31:38.209Z,94434.77
2023-03-27T10:34:40.402Z,94434.38
2023-03-27T10:37:32.093Z,94426.26
2023-03-27T10:40:22.847Z,94428.27
2023-03-27T10:43:03.840Z,94425.58
2023-03-27T10:45:45.976Z,94423.96
2023-03-27T10:48:41.792Z,94424.09
2023-03-27T10:51:46.567Z,94422.02
2023-03-27T10:55:01.699Z,94415.42
2023-03-27T10:57:37.706Z,94416.30
2023-03-27T11:00:21.761Z,94418.48
2023-03-27T11:03:20.586Z,94413.73
2023-03-27T11:05:54.656Z,94411.20
2023-03-27T11:08:37.830Z,94411.38
2023-03-27T11:11:27.383Z,94413.73
2023-03-27T11:14:02.750Z,94416.16
2023-03-27T11:16:43.596Z,94415.36
2023-03-27T11:19:59.284Z,94410.39
2023-03-27T11:23:00.697Z,94407.39
2023-03-27T11:25:52.734Z,94402.55
2023-03-27T11:28:40.063Z,94405.32
2023-03-27T11:31:46.594Z,94407.81
2023-03-27T11:34:44.089Z,94399.64
2023-03-27T11:37:54.498Z,94395.61
2023-03-27T11:40:37.963Z,94392.80
2023-03-27T11:43:11.473Z,94394.73
2023-03-27T11:45:51.474Z,94386.58
2023-03-27T11:48:30.609Z,94390.69
2023-03-27T11:51:14.412Z,94392.17
2023-03-27T11:54:14.883Z,94396.13
2023-03-27T11:56:59.853Z,94387.26
2023-03-27T12:00:25.889Z,94375.83
2023-03-27T12:03:07.206Z,94377.48
2023-03-27T12:05:59.398Z,94378.20
2023-03-27T12:08:48.642Z,94370.34
2023-03-27T12:11:20.846Z,94366.05
2023-03-27T12:14:18.321Z,94362.49
2023-03-27T12:17:01.024Z,94357.60
2023-03-27T12:20:28.418Z,94360.89
2023-03-27T12:23:26.149Z,94373.16
2023-03-27T12:26:40.771Z,94374.03
2023-03-27T12:30:06.471Z,94372.80
2023-03-27T12:33:01.256Z,94379.20
2023-03-27T12:35:36.486Z,94380.21
2023-03-27T12:38:36.729Z,94380.34
2023-03-27T12:41:14.351Z,94371.67
2023-03-27T12:44:01.261Z,94375.30
2023-03-27T12:46:44.782Z,94373.20
2023-03-27T12:49:14.057Z,94371.41
2023-03-27T12:52:05.609Z,94367.37
2023-03-27T12:55:30.049Z,94362.45
2023-03-27T12:58:02.301Z,94373.73
2023-03-27T13:01:03.478Z,94379.52
2023-03-27T13:04:04.910Z,94378.59
2023-03-27T13:06:56.436Z,94383.30
2023-03-27T13:10:08.771Z,94371.67
2023-03-27T13:13:03.055Z,94372.88
2023-03-27T13:15:58.103Z,94364.85
2023-03-27T13:18:46.145Z,94361.62
2023-03-27T13:21:22.811Z,94369.09
2023-03-27T13:24:17.777Z,94364.16
2023-03-27T13:27:09.363Z,94360.50
2023-03-27T13:29:40.627Z,94355.58
2023-03-27T13:32:36.288Z,94349.23
2023-03-27T13:35:41.770Z,94340.92
2023-03-27T13:38:13.971Z,94339.06
2023-03-27T13:41:52.308Z,94336.80
2023-03-27T13:44:28.623Z,94331.43
2023-03-27T13:47:13.249Z,94330.48
2023-03-27T13:49:58.536Z,94326.23
2023-03-27T13:52:39.544Z,94334.27
2023-03-27T13:55:28.346Z,94334.52
2023-03-27T13:58:36.383Z,94337.14
2023-03-27T14:01:43.985Z,94331.13
2023-03-27T14:04:47.100Z,94323.25
2023-03-27T14:08:01.445Z,94323.81
2023-03-27T14:11:09.011Z,94324.38
2023-03-27T14:13:58.084Z,94329.61
2023-03-27T14:17:04.538Z,94328.38
2023-03-27T14:20:07.428Z,94327.25
2023-03-27T14:22:44.810Z,94332.02
2023-03-27T14:25:21.687Z,94331.27
2023-03-27T14:28:01.046Z,94323.13
2023-03-27T14:30:43.225Z,94324.41
2023-03-27T14:33:28.979Z,94326.88
2023-03-27T14:36:04.329Z,94326.85
2023-03-27T14:38:37.443Z,94331.64
2023-03-27T14:41:19.608Z,94328.05
2023-03-27T14:43:54.809Z,94328.67
2023-03-27T14:46:27.068Z,94334.44
2023-03-27T14:49:00.151Z,94339.50
2023-03-27T14:51:38.198Z,94342.08
2023-03-27T14:54:19.790Z,94356.73
2023-03-27T14:56:58.156Z,94363.30
2023-03-27T14:59:43.324Z,94366.83
2023-03-27T15:02:27.532Z,94374.02
2023-03-27T15:05:16.703Z,94385.52
2023-03-27T15:07:49.622Z,94388.23
2023-03-27T15:10:39.490Z,94384.08
2023-03-27T15:13:40.835Z,94388.73
2023-03-27T15:16:25.093Z,94381.91
2023-03-27T15:19:20.946Z,94399.21
2023-03-27T15:22:11.507Z,94397.28
2023-03-27T15:24:56.644Z,94399.66
2023-03-27T15:27:32.822Z,94401.68
2023-03-27T15:30:18.283Z,94404.30
2023-03-27T15:32:53.642Z,94403.45
2023-03-27T15:35:46.579Z,94412.02
2023-03-27T15:38:17.521Z,94415.01
2023-03-27T15:40:58.361Z,94409.49
2023-03-27T15:43:29.615Z,94407.50
2023-03-27T15:46:15.958Z,94405.96
2023-03-27T15:48:51.261Z,94409.15
2023-03-27T15:51:21.683Z,94402.39
2023-03-27T15:53:59.825Z,94405.00
2023-03-27T15:56:43.892Z,94403.23
2023-03-27T15:59:15.805Z,94406.08
2023-03-27T16:01:54.520Z,94403.59
2023-03-27T16:04:36.814Z,94406.81
2023-03-27T16:07:17.363Z,94410.03
2023-03-27T16:09:55.715Z,94403.94
2023-03-27T16:12:32.723Z,94404.39
2023-03-27T16:15:06.478Z,94395.08
2023-03-27T16:17:40.868Z,94399.14
2023-03-27T16:20:14.247Z,94406.00
2023-03-27T16:22:42.857Z,94416.90
2023-03-27T16:25:13.234Z,94425.43
2023-03-27T16:27:55.990Z,94426.58
2023-03-27T16:30:40.916Z,94426.65
2023-03-27T16:33:16.482Z,94428.69
2023-03-27T16:35:47.051Z,94437.27
2023-03-27T16:38:17.023Z,94440.00
2023-03-27T16:40:47.050Z,94439.90
2023-03-27T16:43:17.024Z,94438.26
2023-03-27T16:45:47.250Z,94435.02
2023-03-27T16:48:16.307Z,94435.16
2023-03-27T16:50:46.141Z,94432.95
2023-03-27T16:53:16.802Z,94435.48
2023-03-27T16:55:46.727Z,94437.08
2023-03-27T16:58:16.228Z,94430.13
2023-03-27T17:00:46.724Z,94432.90
2023-03-27T17:03:17.188Z,94434.07
2023-03-27T17:05:46.986Z,94431.54
2023-03-27T17:08:19.068Z,94432.69
2023-03-27T17:10:48.874Z,94431.78
2023-03-27T17:13:18.893Z,94426.75
2023-03-27T17:15:50.872Z,94424.38
2023-03-27T17:18:22.851Z,94421.36
2023-03-27T17:20:53.370Z,94419.74
2023-03-27T17:23:23.689Z,94425.93
2023-03-27T17:25:53.489Z,94429.31
2023-03-27T17:28:23.446Z,94434.48
2023-03-27T17:31:04.041Z,94433.38
2023-03-27T17:33:34.791Z,94431.19
2023-03-27T17:36:09.933Z,94435.92
2023-03-27T17:38:40.628Z,94435.94
2023-03-27T17:41:13.578Z,94438.61
2023-03-27T17:43:44.420Z,94438.63
2023-03-27T17:46:15.127Z,94433.35
2023-03-27T17:48:43.669Z,94432.50
2023-03-27T17:51:13.440Z,94436.89
2023-03-27T17:53:43.352Z,94438.98
2023-03-27T17:56:13.120Z,94439.83
2023-03-27T17:58:44.280Z,94442.35
2023-03-27T18:01:22.288Z,94437.95
2023-03-27T18:03:52.034Z,94436.84
2023-03-27T18:06:22.172Z,94443.10
2023-03-27T18:08:51.607Z,94446.73
2023-03-27T18:11:21.207Z,94451.05
2023-03-27T18:13:53.580Z,94452.45
2023-03-27T18:16:23.429Z,94459.43
2023-03-27T18:18:56.058Z,94465.61
2023-03-27T18:21:26.416Z,94469.96
2023-03-27T18:23:59.818Z,94470.58
2023-03-27T18:26:28.579Z,94466.89
2023-03-27T18:28:58.782Z,94478.27
2023-03-27T18:31:28.828Z,94473.67
2023-03-27T18:33:59.272Z,94475.16
2023-03-27T18:36:28.934Z,94480.17
2023-03-27T18:38:59.075Z,94476.54
2023-03-27T18:41:29.207Z,94479.48
2023-03-27T18:43:59.354Z,94484.55
2023-03-27T18:46:29.480Z,94485.52
2023-03-27T18:49:01.807Z,94483.86
2023-03-27T18:51:35.398Z,94485.11
2023-03-27T18:54:05.862Z,94489.40
2023-03-27T18:56:36.745Z,94492.65
2023-03-27T18:59:08.433Z,94492.36
2023-03-27T19:01:38.341Z,94492.55
2023-03-27T19:04:10.384Z,94491.92
2023-03-27T19:06:42.116Z,94491.45
2023-03-27T19:09:10.966Z,94486.67
2023-03-27T19:11:41.710Z,94494.09
2023-03-27T19:14:31.482Z,94495.76
2023-03-27T19:17:21.505Z,94500.91
2023-03-27T19:20:11.428Z,94501.70
2023-03-27T19:23:06.769Z,94497.88
2023-03-27T19:25:40.267Z,94502.87
2023-03-27T19:28:10.290Z,94506.23
2023-03-27T19:30:40.753Z,94502.64
2023-03-27T19:33:12.004Z,94502.61
2023-03-27T19:35:41.808Z,94502.86
2023-03-27T19:38:11.543Z,94509.02
2023-03-27T19:40:41.365Z,94510.63
2023-03-27T19:43:11.564Z,94513.07
2023-03-27T19:45:40.613Z,94516.42
2023-03-27T19:48:10.650Z,94513.89
2023-03-27T19:50:40.623Z,94516.61
2023-03-27T19:53:15.332Z,94520.46
2023-03-27T19:55:44.112Z,94526.80
2023-03-27T19:58:13.869Z,94539.75
2023-03-27T20:00:44.888Z,94565.50
2023-03-27T20:03:17.141Z,94582.59
2023-03-27T20:05:51.699Z,94597.80
2023-03-27T20:08:22.486Z,94613.96
2023-03-27T20:10:51.349Z,94622.36
2023-03-27T20:13:24.474Z,94627.17
2023-03-27T20:15:54.273Z,94640.58
2023-03-27T20:18:24.049Z,94641.70
2023-03-27T20:20:56.621Z,94649.73
2023-03-27T20:23:32.437Z,94654.39
2023-03-27T20:26:02.700Z,94663.52
2023-03-27T20:28:32.994Z,94671.88
2023-03-27T20:31:06.629Z,94665.34
2023-03-27T20:33:37.886Z,94679.98
2023-03-27T20:36:08.084Z,94694.86
2023-03-27T20:38:38.245Z,94709.48
2023-03-27T20:41:07.369Z,94712.80
2023-03-27T20:43:40.925Z,94711.27
2023-03-27T20:46:13.730Z,94716.44
2023-03-27T20:48:54.337Z,94712.27
2023-03-27T20:51:25.218Z,94725.81
2023-03-27T20:53:57.794Z,94733.56
2023-03-27T20:56:27.643Z,94748.76
2023-03-27T20:58:57.697Z,94757.45
2023-03-27T21:01:28.718Z,94755.08
2023-03-27T21:04:03.233Z,94764.78
2023-03-27T21:06:33.369Z,94765.65
2023-03-27T21:09:03.110Z,94766.53
2023-03-27T21:11:33.816Z,94772.66
2023-03-27T21:14:03.794Z,94776.27
2023-03-27T21:16:34.093Z,94783.89
2023-03-27T21:19:04.097Z,94790.86
2023-03-27T21:21:37.400Z,94779.14
2023-03-27T21:24:07.406Z,94787.04
2023-03-27T21:26:37.423Z,94785.20
2023-03-27T21:29:11.866Z,94784.17
2023-03-27T21:31:43.492Z,94793.24
2023-03-27T21:34:13.860Z,94789.45
2023-03-27T21:36:44.059Z,94800.45
2023-03-27T21:39:13.944Z,94803.77
2023-03-27T21:41:44.203Z,94803.02
2023-03-27T21:44:14.337Z,94788.16
2023-03-27T21:46:44.092Z,94801.66
2023-03-27T21:49:13.902Z,94798.39
2023-03-27T21:51:44.477Z,94817.14
2023-03-27T21:54:16.525Z,94820.34
2023-03-27T21:56:45.132Z,94824.86
2023-03-27T21:59:14.912Z,94831.86
2023-03-27T22:01:44.864Z,94825.55
2023-03-27T22:04:14.917Z,94826.25
2023-03-27T22:06:45.831Z,94834.07
2023-03-27T22:09:14.439Z,94848.67
2023-03-27T22:11:44.760Z,94859.05
2023-03-27T22:14:14.862Z,94850.39
2023-03-27T22:16:47.057Z,94837.61
2023-03-27T22:19:18.922Z,94854.14
2023-03-27T22:21:48.676Z,94864.05
2023-03-27T22:24:18.432Z,94870.50
2023-03-27T22:26:48.639Z,94871.31
2023-03-27T22:29:19.155Z,94874.45
2023-03-27T22:31:49.095Z,94885.20
2023-03-27T22:34:19.259Z,94898.67
2023-03-27T22:36:49.286Z,94907.86
2023-03-27T22:39:18.110Z,94921.59
2023-03-27T22:41:48.195Z,94911.27
2023-03-27T22:44:18.553Z,94930.67
2023-03-27T22:46:48.618Z,94936.87
2023-03-27T22:49:18.359Z,94941.84
2023-03-27T22:51:48.572Z,94946.93
2023-03-27T22:54:19.105Z,94960.30
2023-03-27T22:56:48.900Z,94977.91
2023-03-27T22:59:18.597Z,94985.90
2023-03-27T23:01:48.863Z,94986.37
2023-03-27T23:04:18.981Z,94994.80
2023-03-27T23:06:49.191Z,94991.57
2023-03-27T23:09:18.517Z,94994.67
2023-03-27T23:11:48.247Z,95007.28
2023-03-27T23:14:17.985Z,95008.95
2023-03-27T23:16:48.116Z,95019.80
2023-03-27T23:19:18.039Z,95023.61
2023-03-27T23:21:47.818Z,95022.67
2023-03-27T23:24:17.288Z,95028.83
2023-03-27T23:26:46.986Z,95029.19
2023-03-27T23:29:16.313Z,95040.20
2023-03-27T23:31:44.880Z,95047.08
2023-03-27T23:34:14.955Z,95057.55
2023-03-27T23:36:44.421Z,95064.38
2023-03-27T23:39:14.262Z,95070.98
2023-03-27T23:41:46.548Z,95087.98
2023-03-27T23:44:16.515Z,95081.52
2023-03-27T23:46:46.310Z,95097.09
2023-03-27T23:49:16.578Z,95092.95
2023-03-27T23:51:46.603Z,95101.93
2023-03-27T23:54:16.635Z,95102.43
2023-03-27T23:56:45.184Z,95106.37
2023-03-27T23:59:15.370Z,95104.69
